sensor_id;sensor_type;location;lat;lon;timestamp;temperature;humidity
18974;DHT22;9621;48.690;9.466;2023-07-02T00:02:13;14.80;99.90
18974;DHT22;9621;48.690;9.466;2023-07-02T00:04:40;14.80;99.90
18974;DHT22;9621;48.690;9.466;2023-07-02T00:07:07;14.70;99.90
18974;DHT22;9621;48.690;9.466;2023-07-02T00:09:39;14.70;99.90
18974;DHT22;9621;48.690;9.466;2023-07-02T00:12:07;14.70;99.90
18974;DHT22;9621;48.690;9.466;2023-07-02T00:14:34;14.60;99.90
18974;DHT22;9621;48.690;9.466;2023-07-02T00:17:01;14.70;99.90
18974;DHT22;9621;48.690;9.466;2023-07-02T00:19:29;14.70;99.90
18974;DHT22;9621;48.690;9.466;2023-07-02T00:21:56;14.70;99.90
18974;DHT22;9621;48.690;9.466;2023-07-02T00:24:23;14.70;99.90
18974;DHT22;9621;48.690;9.466;2023-07-02T00:26:52;14.70;99.90
18974;DHT22;9621;48.690;9.466;2023-07-02T00:29:19;14.70;99.90
18974;DHT22;9621;48.690;9.466;2023-07-02T00:31:46;14.70;99.90
18974;DHT22;9621;48.690;9.466;2023-07-02T00:34:14;14.70;99.90
18974;DHT22;9621;48.690;9.466;2023-07-02T00:36:41;14.70;99.90
18974;DHT22;9621;48.690;9.466;2023-07-02T00:39:08;14.70;99.90
18974;DHT22;9621;48.690;9.466;2023-07-02T00:41:37;14.70;99.90
18974;DHT22;9621;48.690;9.466;2023-07-02T00:44:05;14.70;99.90
18974;DHT22;9621;48.690;9.466;2023-07-02T00:46:32;14.70;99.90
18974;DHT22;9621;48.690;9.466;2023-07-02T00:48:59;14.60;99.90
18974;DHT22;9621;48.690;9.466;2023-07-02T00:51:28;14.70;99.90
18974;DHT22;9621;48.690;9.466;2023-07-02T00:53:56;14.60;99.90
18974;DHT22;9621;48.690;9.466;2023-07-02T00:56:24;14.50;99.90
18974;DHT22;9621;48.690;9.466;2023-07-02T00:58:54;14.50;99.90
18974;DHT22;9621;48.690;9.466;2023-07-02T01:01:27;14.50;99.90
18974;DHT22;9621;48.690;9.466;2023-07-02T01:03:57;14.50;99.90
18974;DHT22;9621;48.690;9.466;2023-07-02T01:06:26;14.50;99.90
18974;DHT22;9621;48.690;9.466;2023-07-02T01:08:55;14.40;99.90
18974;DHT22;9621;48.690;9.466;2023-07-02T01:11:25;14.40;99.90
18974;DHT22;9621;48.690;9.466;2023-07-02T01:13:56;14.40;99.90
18974;DHT22;9621;48.690;9.466;2023-07-02T01:16:26;14.40;99.90
18974;DHT22;9621;48.690;9.466;2023-07-02T01:18:56;14.40;99.90
18974;DHT22;9621;48.690;9.466;2023-07-02T01:21:25;14.40;99.90
18974;DHT22;9621;48.690;9.466;2023-07-02T01:23:53;14.50;99.90
18974;DHT22;9621;48.690;9.466;2023-07-02T01:26:20;14.50;99.90
18974;DHT22;9621;48.690;9.466;2023-07-02T01:28:47;14.50;99.90
18974;DHT22;9621;48.690;9.466;2023-07-02T01:31:14;14.70;99.90
18974;DHT22;9621;48.690;9.466;2023-07-02T01:33:41;14.60;99.90
18974;DHT22;9621;48.690;9.466;2023-07-02T01:36:08;14.60;99.90
18974;DHT22;9621;48.690;9.466;2023-07-02T01:38:37;14.60;99.90
18974;DHT22;9621;48.690;9.466;2023-07-02T01:41:04;14.60;99.90
18974;DHT22;9621;48.690;9.466;2023-07-02T01:43:31;14.60;99.90
18974;DHT22;9621;48.690;9.466;2023-07-02T01:45:58;14.60;99.90
18974;DHT22;9621;48.690;9.466;2023-07-02T01:48:25;14.60;99.90
18974;DHT22;9621;48.690;9.466;2023-07-02T01:50:52;14.60;99.90
18974;DHT22;9621;48.690;9.466;2023-07-02T01:53:19;14.60;99.90
18974;DHT22;9621;48.690;9.466;2023-07-02T01:55:47;14.50;99.90
18974;DHT22;9621;48.690;9.466;2023-07-02T01:58:14;14.50;99.90
18974;DHT22;9621;48.690;9.466;2023-07-02T02:00:41;14.50;99.90
18974;DHT22;9621;48.690;9.466;2023-07-02T02:03:08;14.50;99.90
18974;DHT22;9621;48.690;9.466;2023-07-02T02:05:35;14.40;99.90
18974;DHT22;9621;48.690;9.466;2023-07-02T02:08:02;14.40;99.90
18974;DHT22;9621;48.690;9.466;2023-07-02T02:10:29;14.30;99.90
18974;DHT22;9621;48.690;9.466;2023-07-02T02:12:57;14.20;99.90
18974;DHT22;9621;48.690;9.466;2023-07-02T02:15:24;14.10;99.90
18974;DHT22;9621;48.690;9.466;2023-07-02T02:17:51;14.10;99.90
18974;DHT22;9621;48.690;9.466;2023-07-02T02:20:18;14.00;99.90
18974;DHT22;9621;48.690;9.466;2023-07-02T02:22:45;13.80;99.90
18974;DHT22;9621;48.690;9.466;2023-07-02T02:25:12;13.80;99.90
18974;DHT22;9621;48.690;9.466;2023-07-02T02:27:39;13.70;99.90
18974;DHT22;9621;48.690;9.466;2023-07-02T02:30:08;13.70;99.90
18974;DHT22;9621;48.690;9.466;2023-07-02T02:32:35;13.60;99.90
18974;DHT22;9621;48.690;9.466;2023-07-02T02:35:03;13.60;99.90
18974;DHT22;9621;48.690;9.466;2023-07-02T02:37:29;13.50;99.90
18974;DHT22;9621;48.690;9.466;2023-07-02T02:39:57;13.40;99.90
18974;DHT22;9621;48.690;9.466;2023-07-02T02:42:25;13.40;99.90
18974;DHT22;9621;48.690;9.466;2023-07-02T02:44:51;13.40;99.90
18974;DHT22;9621;48.690;9.466;2023-07-02T02:47:20;13.40;99.90
18974;DHT22;9621;48.690;9.466;2023-07-02T02:49:47;13.40;99.90
18974;DHT22;9621;48.690;9.466;2023-07-02T02:52:14;13.40;99.90
18974;DHT22;9621;48.690;9.466;2023-07-02T02:54:42;13.40;99.90
18974;DHT22;9621;48.690;9.466;2023-07-02T02:57:09;13.40;99.90
18974;DHT22;9621;48.690;9.466;2023-07-02T02:59:36;13.40;99.90
18974;DHT22;9621;48.690;9.466;2023-07-02T03:02:03;13.40;99.90
18974;DHT22;9621;48.690;9.466;2023-07-02T03:04:32;13.40;99.90
18974;DHT22;9621;48.690;9.466;2023-07-02T03:06:59;13.50;99.90
18974;DHT22;9621;48.690;9.466;2023-07-02T03:09:27;13.50;99.90
18974;DHT22;9621;48.690;9.466;2023-07-02T03:11:54;13.50;99.90
18974;DHT22;9621;48.690;9.466;2023-07-02T03:14:21;13.50;99.90
18974;DHT22;9621;48.690;9.466;2023-07-02T03:16:47;13.60;99.90
18974;DHT22;9621;48.690;9.466;2023-07-02T03:19:15;13.60;99.90
18974;DHT22;9621;48.690;9.466;2023-07-02T03:21:43;13.70;99.90
18974;DHT22;9621;48.690;9.466;2023-07-02T03:24:10;13.70;99.90
18974;DHT22;9621;48.690;9.466;2023-07-02T03:26:39;13.70;99.90
18974;DHT22;9621;48.690;9.466;2023-07-02T03:29:06;13.80;99.90
18974;DHT22;9621;48.690;9.466;2023-07-02T03:31:33;13.80;99.90
18974;DHT22;9621;48.690;9.466;2023-07-02T03:34:03;13.80;99.90
18974;DHT22;9621;48.690;9.466;2023-07-02T03:36:30;14.00;99.90
18974;DHT22;9621;48.690;9.466;2023-07-02T03:38:59;13.90;99.90
18974;DHT22;9621;48.690;9.466;2023-07-02T03:41:25;14.00;99.90
18974;DHT22;9621;48.690;9.466;2023-07-02T03:43:52;14.00;99.90
18974;DHT22;9621;48.690;9.466;2023-07-02T03:46:19;14.00;99.90
18974;DHT22;9621;48.690;9.466;2023-07-02T03:48:46;14.00;99.90
18974;DHT22;9621;48.690;9.466;2023-07-02T03:51:14;14.00;99.90
18974;DHT22;9621;48.690;9.466;2023-07-02T03:53:41;14.10;99.90
18974;DHT22;9621;48.690;9.466;2023-07-02T03:56:10;14.10;99.90
18974;DHT22;9621;48.690;9.466;2023-07-02T03:58:36;14.10;99.90
18974;DHT22;9621;48.690;9.466;2023-07-02T04:01:04;14.10;99.90
18974;DHT22;9621;48.690;9.466;2023-07-02T04:03:31;14.10;99.90
18974;DHT22;9621;48.690;9.466;2023-07-02T04:05:57;14.10;99.90
18974;DHT22;9621;48.690;9.466;2023-07-02T04:08:25;14.00;99.90
18974;DHT22;9621;48.690;9.466;2023-07-02T04:10:53;14.00;99.90
18974;DHT22;9621;48.690;9.466;2023-07-02T04:13:22;13.90;99.90
18974;DHT22;9621;48.690;9.466;2023-07-02T04:15:48;13.80;99.90
18974;DHT22;9621;48.690;9.466;2023-07-02T04:18:15;13.80;99.90
18974;DHT22;9621;48.690;9.466;2023-07-02T04:20:42;13.70;99.90
18974;DHT22;9621;48.690;9.466;2023-07-02T04:23:09;13.70;99.90
18974;DHT22;9621;48.690;9.466;2023-07-02T04:25:36;13.60;99.90
18974;DHT22;9621;48.690;9.466;2023-07-02T04:28:03;13.60;99.90
18974;DHT22;9621;48.690;9.466;2023-07-02T04:30:31;13.50;99.90
18974;DHT22;9621;48.690;9.466;2023-07-02T04:33:00;13.60;99.90
18974;DHT22;9621;48.690;9.466;2023-07-02T04:35:27;13.50;99.90
18974;DHT22;9621;48.690;9.466;2023-07-02T04:37:54;13.50;99.90
18974;DHT22;9621;48.690;9.466;2023-07-02T04:40:23;13.50;99.90
18974;DHT22;9621;48.690;9.466;2023-07-02T04:42:49;13.40;99.90
18974;DHT22;9621;48.690;9.466;2023-07-02T04:45:24;13.40;99.90
18974;DHT22;9621;48.690;9.466;2023-07-02T04:47:52;13.40;99.90
18974;DHT22;9621;48.690;9.466;2023-07-02T04:50:19;13.40;99.90
18974;DHT22;9621;48.690;9.466;2023-07-02T04:52:46;13.40;99.90
18974;DHT22;9621;48.690;9.466;2023-07-02T04:55:13;13.40;99.90
18974;DHT22;9621;48.690;9.466;2023-07-02T04:57:40;13.40;99.90
18974;DHT22;9621;48.690;9.466;2023-07-02T05:00:07;13.40;99.90
18974;DHT22;9621;48.690;9.466;2023-07-02T05:02:35;13.40;99.90
18974;DHT22;9621;48.690;9.466;2023-07-02T05:05:04;13.50;99.90
18974;DHT22;9621;48.690;9.466;2023-07-02T05:07:31;13.40;99.90
18974;DHT22;9621;48.690;9.466;2023-07-02T05:09:58;13.50;99.90
18974;DHT22;9621;48.690;9.466;2023-07-02T05:12:25;13.50;99.90
18974;DHT22;9621;48.690;9.466;2023-07-02T05:14:52;13.50;99.90
18974;DHT22;9621;48.690;9.466;2023-07-02T05:17:19;13.60;99.90
18974;DHT22;9621;48.690;9.466;2023-07-02T05:19:46;13.60;99.90
18974;DHT22;9621;48.690;9.466;2023-07-02T05:22:14;13.60;99.90
18974;DHT22;9621;48.690;9.466;2023-07-02T05:24:41;13.70;99.90
18974;DHT22;9621;48.690;9.466;2023-07-02T05:27:09;13.70;99.90
18974;DHT22;9621;48.690;9.466;2023-07-02T05:29:37;13.70;99.90
18974;DHT22;9621;48.690;9.466;2023-07-02T05:32:04;13.80;99.90
18974;DHT22;9621;48.690;9.466;2023-07-02T05:34:31;13.80;99.90
18974;DHT22;9621;48.690;9.466;2023-07-02T05:36:58;13.90;99.90
18974;DHT22;9621;48.690;9.466;2023-07-02T05:39:26;13.90;99.90
18974;DHT22;9621;48.690;9.466;2023-07-02T05:41:53;14.00;99.90
18974;DHT22;9621;48.690;9.466;2023-07-02T05:44:20;14.10;99.90
18974;DHT22;9621;48.690;9.466;2023-07-02T05:46:47;14.20;99.90
18974;DHT22;9621;48.690;9.466;2023-07-02T05:49:14;14.40;99.90
18974;DHT22;9621;48.690;9.466;2023-07-02T05:51:40;14.60;99.90
18974;DHT22;9621;48.690;9.466;2023-07-02T05:54:07;14.80;99.90
18974;DHT22;9621;48.690;9.466;2023-07-02T05:56:36;14.90;99.90
18974;DHT22;9621;48.690;9.466;2023-07-02T05:59:03;15.10;99.90
18974;DHT22;9621;48.690;9.466;2023-07-02T06:01:30;15.30;99.90
18974;DHT22;9621;48.690;9.466;2023-07-02T06:03:57;15.50;99.90
18974;DHT22;9621;48.690;9.466;2023-07-02T06:06:24;15.70;99.90
18974;DHT22;9621;48.690;9.466;2023-07-02T06:08:50;16.00;99.90
18974;DHT22;9621;48.690;9.466;2023-07-02T06:11:18;16.20;99.90
18974;DHT22;9621;48.690;9.466;2023-07-02T06:13:46;16.40;99.90
18974;DHT22;9621;48.690;9.466;2023-07-02T06:16:13;16.50;99.90
18974;DHT22;9621;48.690;9.466;2023-07-02T06:18:39;16.60;99.90
18974;DHT22;9621;48.690;9.466;2023-07-02T06:21:06;16.70;99.90
18974;DHT22;9621;48.690;9.466;2023-07-02T06:23:40;16.90;99.90
18974;DHT22;9621;48.690;9.466;2023-07-02T06:26:07;17.20;99.90
18974;DHT22;9621;48.690;9.466;2023-07-02T06:28:34;17.60;99.90
18974;DHT22;9621;48.690;9.466;2023-07-02T06:31:03;18.00;99.90
18974;DHT22;9621;48.690;9.466;2023-07-02T06:33:30;18.40;99.90
18974;DHT22;9621;48.690;9.466;2023-07-02T06:35:56;18.70;99.90
18974;DHT22;9621;48.690;9.466;2023-07-02T06:38:24;19.10;99.90
18974;DHT22;9621;48.690;9.466;2023-07-02T06:40:50;19.50;99.90
18974;DHT22;9621;48.690;9.466;2023-07-02T06:43:17;19.80;99.90
18974;DHT22;9621;48.690;9.466;2023-07-02T06:45:44;20.00;99.90
18974;DHT22;9621;48.690;9.466;2023-07-02T06:48:13;20.30;99.90
18974;DHT22;9621;48.690;9.466;2023-07-02T06:50:43;20.60;99.90
18974;DHT22;9621;48.690;9.466;2023-07-02T06:53:11;20.70;99.90
18974;DHT22;9621;48.690;9.466;2023-07-02T06:55:38;20.80;99.90
18974;DHT22;9621;48.690;9.466;2023-07-02T06:58:05;20.70;99.90
18974;DHT22;9621;48.690;9.466;2023-07-02T07:00:32;20.60;99.90
18974;DHT22;9621;48.690;9.466;2023-07-02T07:03:01;20.50;99.90
18974;DHT22;9621;48.690;9.466;2023-07-02T07:05:29;20.40;99.90
18974;DHT22;9621;48.690;9.466;2023-07-02T07:07:56;20.40;99.90
18974;DHT22;9621;48.690;9.466;2023-07-02T07:10:23;20.30;99.90
18974;DHT22;9621;48.690;9.466;2023-07-02T07:12:50;20.30;99.90
18974;DHT22;9621;48.690;9.466;2023-07-02T07:15:17;20.60;99.90
18974;DHT22;9621;48.690;9.466;2023-07-02T07:17:44;20.90;99.90
18974;DHT22;9621;48.690;9.466;2023-07-02T07:20:11;21.30;99.90
18974;DHT22;9621;48.690;9.466;2023-07-02T07:22:40;21.60;99.90
18974;DHT22;9621;48.690;9.466;2023-07-02T07:25:08;21.70;99.90
18974;DHT22;9621;48.690;9.466;2023-07-02T07:27:35;21.70;99.90
18974;DHT22;9621;48.690;9.466;2023-07-02T07:30:02;21.50;99.90
18974;DHT22;9621;48.690;9.466;2023-07-02T07:32:29;21.30;99.90
18974;DHT22;9621;48.690;9.466;2023-07-02T07:34:56;21.10;99.90
18974;DHT22;9621;48.690;9.466;2023-07-02T07:37:24;21.00;99.90
18974;DHT22;9621;48.690;9.466;2023-07-02T07:39:53;21.30;99.90
18974;DHT22;9621;48.690;9.466;2023-07-02T07:42:20;21.60;99.90
18974;DHT22;9621;48.690;9.466;2023-07-02T07:44:47;22.00;99.90
18974;DHT22;9621;48.690;9.466;2023-07-02T07:47:14;22.20;99.90
18974;DHT22;9621;48.690;9.466;2023-07-02T07:49:41;22.30;99.10
18974;DHT22;9621;48.690;9.466;2023-07-02T07:52:08;22.20;98.40
18974;DHT22;9621;48.690;9.466;2023-07-02T07:54:34;22.00;98.00
18974;DHT22;9621;48.690;9.466;2023-07-02T07:57:03;21.90;98.30
18974;DHT22;9621;48.690;9.466;2023-07-02T07:59:31;21.80;98.00
18974;DHT22;9621;48.690;9.466;2023-07-02T08:01:58;21.90;98.60
18974;DHT22;9621;48.690;9.466;2023-07-02T08:04:26;22.00;98.80
18974;DHT22;9621;48.690;9.466;2023-07-02T08:06:53;22.20;98.60
18974;DHT22;9621;48.690;9.466;2023-07-02T08:09:22;22.50;98.10
18974;DHT22;9621;48.690;9.466;2023-07-02T08:11:50;22.70;97.30
18974;DHT22;9621;48.690;9.466;2023-07-02T08:14:18;23.00;96.70
18974;DHT22;9621;48.690;9.466;2023-07-02T08:16:45;23.00;95.30
18974;DHT22;9621;48.690;9.466;2023-07-02T08:19:12;23.00;95.60
18974;DHT22;9621;48.690;9.466;2023-07-02T08:21:39;22.90;96.10
18974;DHT22;9621;48.690;9.466;2023-07-02T08:24:06;22.80;95.70
18974;DHT22;9621;48.690;9.466;2023-07-02T08:26:33;22.80;94.80
18974;DHT22;9621;48.690;9.466;2023-07-02T08:28:59;22.70;94.60
18974;DHT22;9621;48.690;9.466;2023-07-02T08:31:28;22.60;95.20
18974;DHT22;9621;48.690;9.466;2023-07-02T08:33:54;22.70;94.50
18974;DHT22;9621;48.690;9.466;2023-07-02T08:36:21;22.70;95.40
18974;DHT22;9621;48.690;9.466;2023-07-02T08:38:48;22.70;94.60
18974;DHT22;9621;48.690;9.466;2023-07-02T08:41:15;22.60;94.20
18974;DHT22;9621;48.690;9.466;2023-07-02T08:43:43;22.60;94.00
18974;DHT22;9621;48.690;9.466;2023-07-02T08:46:10;22.60;94.30
18974;DHT22;9621;48.690;9.466;2023-07-02T08:48:40;22.80;95.00
18974;DHT22;9621;48.690;9.466;2023-07-02T08:51:07;22.90;93.40
18974;DHT22;9621;48.690;9.466;2023-07-02T08:53:34;23.00;94.40
18974;DHT22;9621;48.690;9.466;2023-07-02T08:56:03;23.40;94.30
18974;DHT22;9621;48.690;9.466;2023-07-02T08:58:29;23.70;92.90
18974;DHT22;9621;48.690;9.466;2023-07-02T09:01:07;24.20;92.90
18974;DHT22;9621;48.690;9.466;2023-07-02T09:03:35;24.60;86.30
18974;DHT22;9621;48.690;9.466;2023-07-02T09:06:05;24.90;90.90
18974;DHT22;9621;48.690;9.466;2023-07-02T09:08:33;25.20;88.10
18974;DHT22;9621;48.690;9.466;2023-07-02T09:11:18;25.50;89.30
18974;DHT22;9621;48.690;9.466;2023-07-02T09:13:46;25.90;83.30
18974;DHT22;9621;48.690;9.466;2023-07-02T09:16:23;26.20;86.60
18974;DHT22;9621;48.690;9.466;2023-07-02T09:19:00;26.30;80.70
18974;DHT22;9621;48.690;9.466;2023-07-02T09:21:38;26.30;79.20
18974;DHT22;9621;48.690;9.466;2023-07-02T09:24:15;26.20;80.70
18974;DHT22;9621;48.690;9.466;2023-07-02T09:26:44;26.10;80.00
18974;DHT22;9621;48.690;9.466;2023-07-02T09:29:12;25.90;80.60
18974;DHT22;9621;48.690;9.466;2023-07-02T09:31:45;25.70;80.30
18974;DHT22;9621;48.690;9.466;2023-07-02T09:34:13;25.60;77.20
18974;DHT22;9621;48.690;9.466;2023-07-02T09:36:42;25.60;81.80
18974;DHT22;9621;48.690;9.466;2023-07-02T09:39:13;25.80;79.60
18974;DHT22;9621;48.690;9.466;2023-07-02T09:41:41;25.90;78.80
18974;DHT22;9621;48.690;9.466;2023-07-02T09:44:08;26.10;77.60
18974;DHT22;9621;48.690;9.466;2023-07-02T09:46:37;26.30;77.70
18974;DHT22;9621;48.690;9.466;2023-07-02T09:49:13;26.30;75.40
18974;DHT22;9621;48.690;9.466;2023-07-02T09:51:43;26.30;74.30
18974;DHT22;9621;48.690;9.466;2023-07-02T09:54:10;26.40;75.40
18974;DHT22;9621;48.690;9.466;2023-07-02T09:56:38;26.60;76.30
18974;DHT22;9621;48.690;9.466;2023-07-02T09:59:05;26.80;74.70
18974;DHT22;9621;48.690;9.466;2023-07-02T10:01:33;26.80;73.20
18974;DHT22;9621;48.690;9.466;2023-07-02T10:04:11;26.90;73.20
18974;DHT22;9621;48.690;9.466;2023-07-02T10:06:46;27.00;68.50
18974;DHT22;9621;48.690;9.466;2023-07-02T10:09:13;27.10;67.50
18974;DHT22;9621;48.690;9.466;2023-07-02T10:11:40;27.00;71.80
18974;DHT22;9621;48.690;9.466;2023-07-02T10:14:07;26.90;71.30
18974;DHT22;9621;48.690;9.466;2023-07-02T10:16:33;26.80;70.50
18974;DHT22;9621;48.690;9.466;2023-07-02T10:19:09;26.80;69.20
18974;DHT22;9621;48.690;9.466;2023-07-02T10:21:36;26.60;66.40
18974;DHT22;9621;48.690;9.466;2023-07-02T10:24:12;26.40;69.90
18974;DHT22;9621;48.690;9.466;2023-07-02T10:26:51;26.30;67.00
18974;DHT22;9621;48.690;9.466;2023-07-02T10:29:19;26.30;66.90
18974;DHT22;9621;48.690;9.466;2023-07-02T10:31:50;26.20;69.10
18974;DHT22;9621;48.690;9.466;2023-07-02T10:34:28;26.10;67.50
18974;DHT22;9621;48.690;9.466;2023-07-02T10:36:56;26.20;66.00
18974;DHT22;9621;48.690;9.466;2023-07-02T10:39:24;26.30;70.40
18974;DHT22;9621;48.690;9.466;2023-07-02T10:41:51;26.40;69.80
18974;DHT22;9621;48.690;9.466;2023-07-02T10:44:20;26.60;68.80
18974;DHT22;9621;48.690;9.466;2023-07-02T10:46:47;26.70;67.70
18974;DHT22;9621;48.690;9.466;2023-07-02T10:49:17;26.90;66.80
18974;DHT22;9621;48.690;9.466;2023-07-02T10:51:44;27.00;64.30
18974;DHT22;9621;48.690;9.466;2023-07-02T10:54:10;27.10;63.70
18974;DHT22;9621;48.690;9.466;2023-07-02T10:56:41;27.10;63.10
18974;DHT22;9621;48.690;9.466;2023-07-02T10:59:08;27.20;61.20
18974;DHT22;9621;48.690;9.466;2023-07-02T11:01:35;27.30;64.40
18974;DHT22;9621;48.690;9.466;2023-07-02T11:04:03;27.40;62.80
18974;DHT22;9621;48.690;9.466;2023-07-02T11:06:31;27.60;61.20
18974;DHT22;9621;48.690;9.466;2023-07-02T11:08:59;27.70;59.00
18974;DHT22;9621;48.690;9.466;2023-07-02T11:11:26;27.70;59.10
18974;DHT22;9621;48.690;9.466;2023-07-02T11:13:55;27.70;58.00
18974;DHT22;9621;48.690;9.466;2023-07-02T11:16:25;27.50;56.90
18974;DHT22;9621;48.690;9.466;2023-07-02T11:18:53;27.30;56.30
18974;DHT22;9621;48.690;9.466;2023-07-02T11:21:20;27.10;57.50
18974;DHT22;9621;48.690;9.466;2023-07-02T11:23:47;27.00;58.50
18974;DHT22;9621;48.690;9.466;2023-07-02T11:26:14;27.10;58.20
18974;DHT22;9621;48.690;9.466;2023-07-02T11:28:50;27.00;55.30
18974;DHT22;9621;48.690;9.466;2023-07-02T11:31:28;26.80;53.10
18974;DHT22;9621;48.690;9.466;2023-07-02T11:33:55;26.40;54.40
18974;DHT22;9621;48.690;9.466;2023-07-02T11:36:23;26.10;57.20
18974;DHT22;9621;48.690;9.466;2023-07-02T11:38:51;26.00;58.60
18974;DHT22;9621;48.690;9.466;2023-07-02T11:41:19;26.00;59.00
18974;DHT22;9621;48.690;9.466;2023-07-02T11:43:46;26.20;59.00
18974;DHT22;9621;48.690;9.466;2023-07-02T11:46:13;26.30;58.20
18974;DHT22;9621;48.690;9.466;2023-07-02T11:48:41;26.20;57.30
18974;DHT22;9621;48.690;9.466;2023-07-02T11:51:08;26.20;57.00
18974;DHT22;9621;48.690;9.466;2023-07-02T11:53:35;26.00;57.20
18974;DHT22;9621;48.690;9.466;2023-07-02T11:56:02;25.90;57.60
18974;DHT22;9621;48.690;9.466;2023-07-02T11:58:29;25.90;57.30
18974;DHT22;9621;48.690;9.466;2023-07-02T12:00:56;26.00;57.80
18974;DHT22;9621;48.690;9.466;2023-07-02T12:03:23;26.00;56.40
18974;DHT22;9621;48.690;9.466;2023-07-02T12:05:51;26.00;55.70
18974;DHT22;9621;48.690;9.466;2023-07-02T12:08:18;25.90;55.70
18974;DHT22;9621;48.690;9.466;2023-07-02T12:10:45;25.90;56.60
18974;DHT22;9621;48.690;9.466;2023-07-02T12:13:12;25.90;56.90
18974;DHT22;9621;48.690;9.466;2023-07-02T12:15:39;26.10;57.40
18974;DHT22;9621;48.690;9.466;2023-07-02T12:18:06;26.30;56.50
18974;DHT22;9621;48.690;9.466;2023-07-02T12:20:33;26.40;56.50
18974;DHT22;9621;48.690;9.466;2023-07-02T12:23:01;26.60;56.40
18974;DHT22;9621;48.690;9.466;2023-07-02T12:25:28;26.70;55.00
18974;DHT22;9621;48.690;9.466;2023-07-02T12:27:55;26.80;56.10
18974;DHT22;9621;48.690;9.466;2023-07-02T12:30:22;26.80;55.80
18974;DHT22;9621;48.690;9.466;2023-07-02T12:32:49;26.90;54.90
18974;DHT22;9621;48.690;9.466;2023-07-02T12:35:15;27.00;55.30
18974;DHT22;9621;48.690;9.466;2023-07-02T12:37:43;27.20;56.00
18974;DHT22;9621;48.690;9.466;2023-07-02T12:40:12;27.30;54.50
18974;DHT22;9621;48.690;9.466;2023-07-02T12:42:40;27.50;53.40
18974;DHT22;9621;48.690;9.466;2023-07-02T12:45:08;27.60;53.50
18974;DHT22;9621;48.690;9.466;2023-07-02T12:47:35;27.70;52.70
18974;DHT22;9621;48.690;9.466;2023-07-02T12:50:02;27.60;52.00
18974;DHT22;9621;48.690;9.466;2023-07-02T12:52:29;27.40;51.30
18974;DHT22;9621;48.690;9.466;2023-07-02T12:54:56;27.30;52.00
18974;DHT22;9621;48.690;9.466;2023-07-02T12:57:25;27.30;52.90
18974;DHT22;9621;48.690;9.466;2023-07-02T12:59:53;27.20;52.20
18974;DHT22;9621;48.690;9.466;2023-07-02T13:02:20;27.10;52.30
18974;DHT22;9621;48.690;9.466;2023-07-02T13:04:47;27.10;53.60
18974;DHT22;9621;48.690;9.466;2023-07-02T13:07:14;27.20;53.80
18974;DHT22;9621;48.690;9.466;2023-07-02T13:09:41;27.30;53.00
18974;DHT22;9621;48.690;9.466;2023-07-02T13:12:08;27.40;53.30
18974;DHT22;9621;48.690;9.466;2023-07-02T13:14:36;27.60;52.30
18974;DHT22;9621;48.690;9.466;2023-07-02T13:17:04;27.70;52.30
18974;DHT22;9621;48.690;9.466;2023-07-02T13:19:31;27.90;52.00
18974;DHT22;9621;48.690;9.466;2023-07-02T13:21:58;28.00;52.50
18974;DHT22;9621;48.690;9.466;2023-07-02T13:24:31;28.10;51.00
18974;DHT22;9621;48.690;9.466;2023-07-02T13:26:59;28.10;50.40
18974;DHT22;9621;48.690;9.466;2023-07-02T13:29:28;28.20;50.30
18974;DHT22;9621;48.690;9.466;2023-07-02T13:31:57;28.20;50.10
18974;DHT22;9621;48.690;9.466;2023-07-02T13:34:23;28.20;49.70
18974;DHT22;9621;48.690;9.466;2023-07-02T13:36:50;28.10;50.10
18974;DHT22;9621;48.690;9.466;2023-07-02T13:39:17;28.00;50.00
18974;DHT22;9621;48.690;9.466;2023-07-02T13:41:44;28.10;50.60
18974;DHT22;9621;48.690;9.466;2023-07-02T13:44:11;28.10;50.40
18974;DHT22;9621;48.690;9.466;2023-07-02T13:46:38;28.20;50.00
18974;DHT22;9621;48.690;9.466;2023-07-02T13:49:06;28.20;49.10
18974;DHT22;9621;48.690;9.466;2023-07-02T13:51:33;28.30;48.10
18974;DHT22;9621;48.690;9.466;2023-07-02T13:53:59;28.20;47.70
18974;DHT22;9621;48.690;9.466;2023-07-02T13:56:26;28.20;48.10
18974;DHT22;9621;48.690;9.466;2023-07-02T13:59:04;28.10;48.40
18974;DHT22;9621;48.690;9.466;2023-07-02T14:01:32;28.10;47.00
18974;DHT22;9621;48.690;9.466;2023-07-02T14:03:59;28.10;48.10
18974;DHT22;9621;48.690;9.466;2023-07-02T14:06:26;28.20;48.20
18974;DHT22;9621;48.690;9.466;2023-07-02T14:08:53;28.30;48.30
18974;DHT22;9621;48.690;9.466;2023-07-02T14:11:22;28.30;48.20
18974;DHT22;9621;48.690;9.466;2023-07-02T14:13:49;28.50;48.70
18974;DHT22;9621;48.690;9.466;2023-07-02T14:16:17;28.60;47.60
18974;DHT22;9621;48.690;9.466;2023-07-02T14:18:44;28.80;47.00
18974;DHT22;9621;48.690;9.466;2023-07-02T14:21:11;28.90;46.90
18974;DHT22;9621;48.690;9.466;2023-07-02T14:23:38;28.90;46.50
18974;DHT22;9621;48.690;9.466;2023-07-02T14:26:05;28.90;46.40
18974;DHT22;9621;48.690;9.466;2023-07-02T14:28:33;28.90;45.90
18974;DHT22;9621;48.690;9.466;2023-07-02T14:31:02;28.80;46.40
18974;DHT22;9621;48.690;9.466;2023-07-02T14:33:32;28.70;46.80
18974;DHT22;9621;48.690;9.466;2023-07-02T14:36:00;28.80;44.90
18974;DHT22;9621;48.690;9.466;2023-07-02T14:38:28;28.90;46.60
18974;DHT22;9621;48.690;9.466;2023-07-02T14:40:55;29.00;46.60
18974;DHT22;9621;48.690;9.466;2023-07-02T14:43:24;29.10;46.00
18974;DHT22;9621;48.690;9.466;2023-07-02T14:45:57;29.10;45.10
18974;DHT22;9621;48.690;9.466;2023-07-02T14:48:24;29.10;43.60
18974;DHT22;9621;48.690;9.466;2023-07-02T14:50:54;29.10;45.30
18974;DHT22;9621;48.690;9.466;2023-07-02T14:53:22;29.10;44.60
18974;DHT22;9621;48.690;9.466;2023-07-02T14:55:49;29.20;44.90
18974;DHT22;9621;48.690;9.466;2023-07-02T14:58:17;29.20;44.80
18974;DHT22;9621;48.690;9.466;2023-07-02T15:00:45;29.10;44.40
18974;DHT22;9621;48.690;9.466;2023-07-02T15:03:12;29.10;44.80
18974;DHT22;9621;48.690;9.466;2023-07-02T15:05:40;28.80;44.20
18974;DHT22;9621;48.690;9.466;2023-07-02T15:08:09;28.60;45.00
18974;DHT22;9621;48.690;9.466;2023-07-02T15:10:38;28.60;44.70
18974;DHT22;9621;48.690;9.466;2023-07-02T15:13:06;28.50;45.40
18974;DHT22;9621;48.690;9.466;2023-07-02T15:15:34;28.50;46.40
18974;DHT22;9621;48.690;9.466;2023-07-02T15:18:01;28.60;46.20
18974;DHT22;9621;48.690;9.466;2023-07-02T15:20:28;28.60;46.00
18974;DHT22;9621;48.690;9.466;2023-07-02T15:22:55;28.80;46.20
18974;DHT22;9621;48.690;9.466;2023-07-02T15:25:23;28.80;46.00
18974;DHT22;9621;48.690;9.466;2023-07-02T15:27:51;28.90;45.30
18974;DHT22;9621;48.690;9.466;2023-07-02T15:30:18;29.00;45.20
18974;DHT22;9621;48.690;9.466;2023-07-02T15:32:45;29.00;44.90
18974;DHT22;9621;48.690;9.466;2023-07-02T15:35:12;28.80;44.20
18974;DHT22;9621;48.690;9.466;2023-07-02T15:37:39;28.60;44.70
18974;DHT22;9621;48.690;9.466;2023-07-02T15:40:08;28.40;45.70
18974;DHT22;9621;48.690;9.466;2023-07-02T15:42:37;28.30;45.50
18974;DHT22;9621;48.690;9.466;2023-07-02T15:45:05;28.10;45.70
18974;DHT22;9621;48.690;9.466;2023-07-02T15:47:33;28.00;46.10
18974;DHT22;9621;48.690;9.466;2023-07-02T15:50:00;27.90;46.50